Saint Albans Bay — V7BQ8 — position and weather

sailwx.info

Track history (hours):
 
Tides and Currents Weather Stations Pressure Air Temp Water Temp Dewpoint Dewpoint Depression Visibility Wind Speed Wind Dir Waves Ship Positions

Saint Albans Bay

Last reported at 2017-Oct-14 08:47 UTC. Time now 2017-Oct-19 20:05 UTC.
Position N 34°52' W 010°43'.

Length 183 m; draft 10.5 m.

Type: Tanker. MMSI: 538005189.

Date/timePositionNaut miles runAvg speedWind from/ knotsBaromVisibWave heightAir tempDewpointWater temp
2017-Oct-14 08:47N 34°52' W 010°43'412.7
2017-Oct-14 08:29N 34°53' W 010°38'712.3
2017-Oct-14 07:54N 34°56' W 010°30'512.0
2017-Oct-14 07:29N 34°57' W 010°24'812.2
2017-Oct-14 06:50N 34°60' W 010°15'412.5
2017-Oct-14 06:30N 35°01' W 010°10'612.4
2017-Oct-14 06:00N 35°02' W 010°03'712.1
2017-Oct-14 05:24N 35°04' W 009°54'1212.4
2017-Oct-14 04:28N 35°07' W 009°41'712.2
2017-Oct-14 03:55N 35°10' W 009°33'612.0
2017-Oct-14 03:25N 35°11' W 009°26'512.3
2017-Oct-14 03:01N 35°13' W 009°20'712.8
2017-Oct-14 02:30N 35°14' W 009°12'612.6
2017-Oct-14 02:00N 35°16' W 009°05'712.3
2017-Oct-14 01:25N 35°18' W 008°56'512.1
2017-Oct-14 01:00N 35°19' W 008°51'612.2
2017-Oct-14 00:30N 35°21' W 008°43'612.2
2017-Oct-14 00:00N 35°23' W 008°36'612.5
2017-Oct-13 23:30N 35°25' W 008°29'612.6
2017-Oct-13 23:00N 35°27' W 008°22'612.4
2017-Oct-13 22:30N 35°28' W 008°14'612.5
2017-Oct-13 22:00N 35°30' W 008°07'612.4
2017-Oct-13 21:30N 35°32' W 007°60'612.2
2017-Oct-13 20:59N 35°34' W 007°52'612.0
2017-Oct-13 20:31N 35°35' W 007°46'712.2
2017-Oct-13 19:58N 35°37' W 007°38'912.1
2017-Oct-13 19:14N 35°39' W 007°27'312.3
2017-Oct-13 18:57N 35°40' W 007°23'1512.5
2017-Oct-13 17:45N 35°45' W 007°05'312.5
2017-Oct-13 17:29N 35°46' W 007°02'612.9
2017-Oct-13 17:00N 35°49' W 006°55'6512.6
2017-Oct-13 11:50N 35°58' W 005°35'410.7
2017-Oct-13 11:29N 35°59' W 005°31'611.4
2017-Oct-13 11:00N 36°01' W 005°25'611.8
2017-Oct-13 10:30N 36°02' W 005°18'611.4
2017-Oct-13 10:00N 36°03' W 005°11'13212.6
2017-Oct-12 23:30N 36°11' W 002°27'3812.2
2017-Oct-12 20:20N 36°20' W 001°41'1011.9
2017-Oct-12 19:31N 36°24' W 001°30'012.1
2017-Oct-12 19:30N 36°24' W 001°30'612.5
2017-Oct-12 19:00N 36°26' W 001°22'1112.8
2017-Oct-12 18:08N 36°30' W 001°09'1212.8
2017-Oct-12 17:13N 36°34' W 000°56'312.7
2017-Oct-12 16:58N 36°35' W 000°52'612.9
2017-Oct-12 16:30N 36°37' W 000°45'713.0
2017-Oct-12 16:00N 36°39' W 000°37'613.0
2017-Oct-12 15:30N 36°42' W 000°30'713.1
2017-Oct-12 15:00N 36°44' W 000°22'1113.3
2017-Oct-12 14:12N 36°47' W 000°10'313.2
2017-Oct-12 14:00N 36°48' W 000°06'613.0
2017-Oct-12 13:30N 36°51' E 000°01'712.8
2017-Oct-12 12:59N 36°53' E 000°09'712.9
2017-Oct-12 12:27N 36°56' E 000°17'613.0
2017-Oct-12 12:00N 36°58' E 000°23'612.8
2017-Oct-12 11:30N 37°00' E 000°31'713.2
2017-Oct-12 10:57N 37°03' E 000°40'613.2
2017-Oct-12 10:29N 37°05' E 000°47'713.2
2017-Oct-12 09:57N 37°07' E 000°55'613.9
2017-Oct-12 09:30N 37°09' E 001°02'815.1
2017-Oct-12 09:00N 37°12' E 001°11'815.2
2017-Oct-12 08:30N 37°15' E 001°20'714.9
2017-Oct-12 08:00N 37°17' E 001°29'713.9
2017-Oct-12 07:31N 37°19' E 001°37'713.1
2017-Oct-12 07:01N 37°21' E 001°45'56312.4
2017-Oct-10 09:37N 36°47' E 013°30'111.8
2017-Oct-10 09:29N 36°46' E 013°32'611.9
2017-Oct-10 08:57N 36°44' E 013°39'511.9
2017-Oct-10 08:30N 36°42' E 013°45'611.9
2017-Oct-10 08:00N 36°39' E 013°52'611.8
2017-Oct-10 07:30N 36°37' E 013°59'611.8
2017-Oct-10 07:00N 36°34' E 014°05'612.0
2017-Oct-10 06:30N 36°32' E 014°12'612.0
2017-Oct-10 06:00N 36°30' E 014°19'612.0
2017-Oct-10 05:30N 36°27' E 014°26'612.1
2017-Oct-10 05:00N 36°25' E 014°33'612.2
2017-Oct-10 04:30N 36°23' E 014°40'612.4
2017-Oct-10 03:59N 36°23' E 014°48'  
2017-Oct-06 15:11N 36°26' E 014°51'212.7
2017-Oct-06 14:59N 36°25' E 014°49'612.2
2017-Oct-06 14:30N 36°26' E 014°41'713.1
2017-Oct-06 13:59N 36°28' E 014°33'613.1
2017-Oct-06 13:30N 36°30' E 014°26'713.3
2017-Oct-06 13:00N 36°33' E 014°18'713.5
2017-Oct-06 12:28N 36°35' E 014°10'613.4
2017-Oct-06 12:00N 36°37' E 014°03'713.5
2017-Oct-06 11:30N 36°39' E 013°54'713.3
2017-Oct-06 11:00N 36°41' E 013°47'713.2
2017-Oct-06 10:30N 36°44' E 013°39'613.1
2017-Oct-06 10:00N 36°46' E 013°31'812.9
2017-Oct-06 09:25N 36°49' E 013°22'18312.7
2017-Oct-05 19:02N 37°35' E 009°40'113.7
2017-Oct-05 18:59N 37°35' E 009°39'913.4
2017-Oct-05 18:19N 37°36' E 009°28'413.3
2017-Oct-05 18:00N 37°36' E 009°23'713.3
2017-Oct-05 17:30N 37°36' E 009°14'  
Track history (hours):
 
Tides and Currents Weather Stations Pressure Air Temp Water Temp Dewpoint Dewpoint Depression Visibility Wind Speed Wind Dir Waves Ship Positions

Saint Albans Bay

Last reported at 2017-Oct-14 08:47 UTC. Time now 2017-Oct-19 20:05 UTC.
Position N 34°52' W 010°43'.

Length 183 m; draft 10.5 m.

Type: Tanker. MMSI: 538005189.

Date/timePositionNaut miles runAvg speedWind from/ knotsBaromVisibWave heightAir tempDewpointWater temp
2017-Oct-14 08:47N 34°52' W 010°43'412.7
2017-Oct-14 08:29N 34°53' W 010°38'712.3
2017-Oct-14 07:54N 34°56' W 010°30'512.0
2017-Oct-14 07:29N 34°57' W 010°24'812.2
2017-Oct-14 06:50N 34°60' W 010°15'412.5
2017-Oct-14 06:30N 35°01' W 010°10'612.4
2017-Oct-14 06:00N 35°02' W 010°03'712.1
2017-Oct-14 05:24N 35°04' W 009°54'1212.4
2017-Oct-14 04:28N 35°07' W 009°41'712.2
2017-Oct-14 03:55N 35°10' W 009°33'612.0
2017-Oct-14 03:25N 35°11' W 009°26'512.3
2017-Oct-14 03:01N 35°13' W 009°20'712.8
2017-Oct-14 02:30N 35°14' W 009°12'612.6
2017-Oct-14 02:00N 35°16' W 009°05'712.3
2017-Oct-14 01:25N 35°18' W 008°56'512.1
2017-Oct-14 01:00N 35°19' W 008°51'612.2
2017-Oct-14 00:30N 35°21' W 008°43'612.2
2017-Oct-14 00:00N 35°23' W 008°36'612.5
2017-Oct-13 23:30N 35°25' W 008°29'612.6
2017-Oct-13 23:00N 35°27' W 008°22'612.4
2017-Oct-13 22:30N 35°28' W 008°14'612.5
2017-Oct-13 22:00N 35°30' W 008°07'612.4
2017-Oct-13 21:30N 35°32' W 007°60'612.2
2017-Oct-13 20:59N 35°34' W 007°52'612.0
2017-Oct-13 20:31N 35°35' W 007°46'712.2
2017-Oct-13 19:58N 35°37' W 007°38'912.1
2017-Oct-13 19:14N 35°39' W 007°27'312.3
2017-Oct-13 18:57N 35°40' W 007°23'1512.5
2017-Oct-13 17:45N 35°45' W 007°05'312.5
2017-Oct-13 17:29N 35°46' W 007°02'612.9
2017-Oct-13 17:00N 35°49' W 006°55'6512.6
2017-Oct-13 11:50N 35°58' W 005°35'410.7
2017-Oct-13 11:29N 35°59' W 005°31'611.4
2017-Oct-13 11:00N 36°01' W 005°25'611.8
2017-Oct-13 10:30N 36°02' W 005°18'611.4
2017-Oct-13 10:00N 36°03' W 005°11'13212.6
2017-Oct-12 23:30N 36°11' W 002°27'3812.2
2017-Oct-12 20:20N 36°20' W 001°41'1011.9
2017-Oct-12 19:31N 36°24' W 001°30'012.1
2017-Oct-12 19:30N 36°24' W 001°30'612.5
2017-Oct-12 19:00N 36°26' W 001°22'1112.8
2017-Oct-12 18:08N 36°30' W 001°09'1212.8
2017-Oct-12 17:13N 36°34' W 000°56'312.7
2017-Oct-12 16:58N 36°35' W 000°52'612.9
2017-Oct-12 16:30N 36°37' W 000°45'713.0
2017-Oct-12 16:00N 36°39' W 000°37'613.0
2017-Oct-12 15:30N 36°42' W 000°30'713.1
2017-Oct-12 15:00N 36°44' W 000°22'1113.3
2017-Oct-12 14:12N 36°47' W 000°10'313.2
2017-Oct-12 14:00N 36°48' W 000°06'613.0
2017-Oct-12 13:30N 36°51' E 000°01'712.8
2017-Oct-12 12:59N 36°53' E 000°09'712.9
2017-Oct-12 12:27N 36°56' E 000°17'613.0
2017-Oct-12 12:00N 36°58' E 000°23'612.8
2017-Oct-12 11:30N 37°00' E 000°31'713.2
2017-Oct-12 10:57N 37°03' E 000°40'613.2
2017-Oct-12 10:29N 37°05' E 000°47'713.2
2017-Oct-12 09:57N 37°07' E 000°55'613.9
2017-Oct-12 09:30N 37°09' E 001°02'815.1
2017-Oct-12 09:00N 37°12' E 001°11'815.2
2017-Oct-12 08:30N 37°15' E 001°20'714.9
2017-Oct-12 08:00N 37°17' E 001°29'713.9
2017-Oct-12 07:31N 37°19' E 001°37'713.1
2017-Oct-12 07:01N 37°21' E 001°45'56312.4
2017-Oct-10 09:37N 36°47' E 013°30'111.8
2017-Oct-10 09:29N 36°46' E 013°32'611.9
2017-Oct-10 08:57N 36°44' E 013°39'511.9
2017-Oct-10 08:30N 36°42' E 013°45'611.9
2017-Oct-10 08:00N 36°39' E 013°52'611.8
2017-Oct-10 07:30N 36°37' E 013°59'611.8
2017-Oct-10 07:00N 36°34' E 014°05'612.0
2017-Oct-10 06:30N 36°32' E 014°12'612.0
2017-Oct-10 06:00N 36°30' E 014°19'612.0
2017-Oct-10 05:30N 36°27' E 014°26'612.1
2017-Oct-10 05:00N 36°25' E 014°33'612.2
2017-Oct-10 04:30N 36°23' E 014°40'612.4
2017-Oct-10 03:59N 36°23' E 014°48'  
2017-Oct-06 15:11N 36°26' E 014°51'212.7
2017-Oct-06 14:59N 36°25' E 014°49'612.2
2017-Oct-06 14:30N 36°26' E 014°41'713.1
2017-Oct-06 13:59N 36°28' E 014°33'613.1
2017-Oct-06 13:30N 36°30' E 014°26'713.3
2017-Oct-06 13:00N 36°33' E 014°18'713.5
2017-Oct-06 12:28N 36°35' E 014°10'613.4
2017-Oct-06 12:00N 36°37' E 014°03'713.5
2017-Oct-06 11:30N 36°39' E 013°54'713.3
2017-Oct-06 11:00N 36°41' E 013°47'713.2
2017-Oct-06 10:30N 36°44' E 013°39'613.1
2017-Oct-06 10:00N 36°46' E 013°31'812.9
2017-Oct-06 09:25N 36°49' E 013°22'18312.7
2017-Oct-05 19:02N 37°35' E 009°40'113.7
2017-Oct-05 18:59N 37°35' E 009°39'913.4
2017-Oct-05 18:19N 37°36' E 009°28'413.3
2017-Oct-05 18:00N 37°36' E 009°23'713.3
2017-Oct-05 17:30N 37°36' E 009°14'  

Dump ship's entire track history